Startpagina
METAR-TAF:

METAR-TAF

Vliegvelden :

Seldovia, Alaska, Verenigde Staten

breedte: 59-27N, lengte: 151-42W, hoogte: 9 m

Actueel weer

Dit bericht is 24 minuten geleden gemaakt, om 12:53 UTC
Weinig wind
Temperatuur 3°C
Vochtigheid 100%
Druk 984 hPa
Zicht: 6.4 km
Geheel bewolkt op 4400 ft
lichte regen, nevel

METAR: PASO 181253Z AUTO 00000KT 4SM -RA BR OVC044 03/03 A2906 RMK AO2 SLP839 P0002 T00330028 TSNO

Tijdstip: 05:17 (13:17 UTC)


TAF: ontbreekt

Waarnemingen en weersverwachtingen van meer dan 4000 vliegvelden (METAR en TAF).

De beschikbare stations zijn de gele en rode punten op de kaart.

Ga met uw muis naar het station om de naam te zien.

Klik dan om waarnemingen en weersverwachtingen te zien.

kaart wijzigen: klik op de groene knoppen met een zwart kruis om in te zoomen, op de groene knop met een streepje om uit te zoomen of op de groene pijlen voor aangrenzende kaarten.


METAR-TAF: